sensor_id;sensor_type;location;lat;lon;timestamp;pressure;altitude;pressure_sealevel;temperature;humidity
8075;BME280;4080;42.676;23.372;2023-02-14T00:00:26;96490.31;;;3.09;100.00
8075;BME280;4080;42.676;23.372;2023-02-14T00:02:53;96491.63;;;3.05;100.00
8075;BME280;4080;42.676;23.372;2023-02-14T00:05:22;96468.59;;;2.87;100.00
8075;BME280;4080;42.676;23.372;2023-02-14T00:07:49;96491.13;;;2.95;100.00
8075;BME280;4080;42.676;23.372;2023-02-14T00:10:16;96486.03;;;2.87;100.00
8075;BME280;4080;42.676;23.372;2023-02-14T00:12:43;96479.84;;;2.88;100.00
8075;BME280;4080;42.676;23.372;2023-02-14T00:15:10;96489.88;;;2.91;100.00
8075;BME280;4080;42.676;23.372;2023-02-14T00:17:48;96492.13;;;2.94;100.00
8075;BME280;4080;42.676;23.372;2023-02-14T00:20:15;96493.38;;;2.98;100.00
8075;BME280;4080;42.676;23.372;2023-02-14T00:22:43;96492.38;;;2.99;100.00
8075;BME280;4080;42.676;23.372;2023-02-14T00:25:10;96470.22;;;2.88;100.00
8075;BME280;4080;42.676;23.372;2023-02-14T00:27:36;96492.28;;;3.07;100.00
8075;BME280;4080;42.676;23.372;2023-02-14T00:30:04;96485.91;;;3.09;100.00
8075;BME280;4080;42.676;23.372;2023-02-14T00:32:31;96483.72;;;3.13;100.00
8075;BME280;4080;42.676;23.372;2023-02-14T00:34:58;96477.16;;;3.17;100.00
8075;BME280;4080;42.676;23.372;2023-02-14T00:37:24;96477.59;;;3.21;100.00
8075;BME280;4080;42.676;23.372;2023-02-14T00:39:53;96486.47;;;3.26;100.00
8075;BME280;4080;42.676;23.372;2023-02-14T00:42:19;96460.38;;;3.26;100.00
8075;BME280;4080;42.676;23.372;2023-02-14T00:44:46;96454.34;;;3.26;100.00
8075;BME280;4080;42.676;23.372;2023-02-14T00:47:13;96437.59;;;3.14;100.00
8075;BME280;4080;42.676;23.372;2023-02-14T00:49:39;96477.78;;;3.40;100.00
8075;BME280;4080;42.676;23.372;2023-02-14T00:52:06;96471.38;;;3.43;100.00
8075;BME280;4080;42.676;23.372;2023-02-14T00:54:33;96467.59;;;3.46;100.00
8075;BME280;4080;42.676;23.372;2023-02-14T00:57:01;96455.97;;;3.48;100.00
8075;BME280;4080;42.676;23.372;2023-02-14T00:59:27;96463.63;;;3.50;100.00
8075;BME280;4080;42.676;23.372;2023-02-14T01:01:54;96459.38;;;3.49;100.00
8075;BME280;4080;42.676;23.372;2023-02-14T01:04:21;96445.34;;;3.50;100.00
8075;BME280;4080;42.676;23.372;2023-02-14T01:06:47;96443.34;;;3.52;100.00
8075;BME280;4080;42.676;23.372;2023-02-14T01:09:14;96445.34;;;3.50;100.00
8075;BME280;4080;42.676;23.372;2023-02-14T01:11:41;96451.81;;;3.54;100.00
8075;BME280;4080;42.676;23.372;2023-02-14T01:14:09;96409.84;;;3.27;100.00
8075;BME280;4080;42.676;23.372;2023-02-14T01:16:37;96438.91;;;3.46;100.00
8075;BME280;4080;42.676;23.372;2023-02-14T01:19:04;96446.78;;;3.52;100.00
8075;BME280;4080;42.676;23.372;2023-02-14T01:21:32;96446.97;;;3.51;100.00
8075;BME280;4080;42.676;23.372;2023-02-14T01:24:01;96441.94;;;3.49;100.00
8075;BME280;4080;42.676;23.372;2023-02-14T01:26:28;96391.72;;;3.19;100.00
8075;BME280;4080;42.676;23.372;2023-02-14T01:28:56;96383.28;;;3.17;100.00
8075;BME280;4080;42.676;23.372;2023-02-14T01:31:25;96433.31;;;3.49;100.00
8075;BME280;4080;42.676;23.372;2023-02-14T01:33:53;96382.03;;;3.13;100.00
8075;BME280;4080;42.676;23.372;2023-02-14T01:36:22;96390.91;;;3.19;100.00
8075;BME280;4080;42.676;23.372;2023-02-14T01:38:50;96406.75;;;3.38;100.00
8075;BME280;4080;42.676;23.372;2023-02-14T01:41:17;96413.63;;;3.46;100.00
8075;BME280;4080;42.676;23.372;2023-02-14T01:43:58;96409.22;;;3.47;100.00
8075;BME280;4080;42.676;23.372;2023-02-14T01:46:29;96392.09;;;3.37;100.00
8075;BME280;4080;42.676;23.372;2023-02-14T01:49:03;96403.56;;;3.43;100.00
8075;BME280;4080;42.676;23.372;2023-02-14T01:51:32;96393.31;;;3.41;100.00
8075;BME280;4080;42.676;23.372;2023-02-14T01:54:00;96396.72;;;3.42;100.00
8075;BME280;4080;42.676;23.372;2023-02-14T01:56:29;96399.97;;;3.44;100.00
8075;BME280;4080;42.676;23.372;2023-02-14T01:59:01;96399.34;;;3.42;100.00
8075;BME280;4080;42.676;23.372;2023-02-14T02:01:32;96400.34;;;3.41;100.00
8075;BME280;4080;42.676;23.372;2023-02-14T02:04:03;96401.16;;;3.41;100.00
8075;BME280;4080;42.676;23.372;2023-02-14T02:06:34;96393.94;;;3.43;100.00
8075;BME280;4080;42.676;23.372;2023-02-14T02:09:14;96385.41;;;3.35;100.00
8075;BME280;4080;42.676;23.372;2023-02-14T02:11:42;96397.72;;;3.41;100.00
8075;BME280;4080;42.676;23.372;2023-02-14T02:14:13;96353.75;;;3.10;100.00
8075;BME280;4080;42.676;23.372;2023-02-14T02:16:57;96395.03;;;3.34;100.00
8075;BME280;4080;42.676;23.372;2023-02-14T02:23:03;96396.50;;;3.37;100.00
8075;BME280;4080;42.676;23.372;2023-02-14T02:25:57;96382.56;;;3.30;100.00
8075;BME280;4080;42.676;23.372;2023-02-14T02:28:47;96385.88;;;3.38;100.00
8075;BME280;4080;42.676;23.372;2023-02-14T02:31:44;96366.97;;;3.36;100.00
8075;BME280;4080;42.676;23.372;2023-02-14T02:34:38;96373.03;;;3.37;100.00
8075;BME280;4080;42.676;23.372;2023-02-14T02:37:22;96373.38;;;3.34;100.00
8075;BME280;4080;42.676;23.372;2023-02-14T02:40:03;96361.94;;;3.35;100.00
8075;BME280;4080;42.676;23.372;2023-02-14T02:42:39;96354.75;;;3.37;100.00
8075;BME280;4080;42.676;23.372;2023-02-14T02:45:11;96357.19;;;3.38;100.00
8075;BME280;4080;42.676;23.372;2023-02-14T02:47:47;96362.22;;;3.40;100.00
8075;BME280;4080;42.676;23.372;2023-02-14T02:53:14;96352.59;;;3.40;100.00
8075;BME280;4080;42.676;23.372;2023-02-14T02:55:46;96357.78;;;3.40;100.00
8075;BME280;4080;42.676;23.372;2023-02-14T02:58:36;96367.63;;;3.38;100.00
8075;BME280;4080;42.676;23.372;2023-02-14T03:01:08;96363.75;;;3.34;100.00
8075;BME280;4080;42.676;23.372;2023-02-14T03:03:36;96356.69;;;3.28;100.00
8075;BME280;4080;42.676;23.372;2023-02-14T03:06:20;96356.91;;;3.33;100.00
8075;BME280;4080;42.676;23.372;2023-02-14T03:08:48;96357.69;;;3.27;100.00
8075;BME280;4080;42.676;23.372;2023-02-14T03:11:15;96365.34;;;3.35;100.00
8075;BME280;4080;42.676;23.372;2023-02-14T03:13:54;96363.56;;;3.36;100.00
8075;BME280;4080;42.676;23.372;2023-02-14T03:16:31;96371.22;;;3.37;100.00
8075;BME280;4080;42.676;23.372;2023-02-14T03:19:20;96362.13;;;3.33;100.00
8075;BME280;4080;42.676;23.372;2023-02-14T03:21:55;96361.75;;;3.36;100.00
8075;BME280;4080;42.676;23.372;2023-02-14T03:24:27;96353.31;;;3.34;100.00
8075;BME280;4080;42.676;23.372;2023-02-14T03:27:01;96347.09;;;3.35;100.00
8075;BME280;4080;42.676;23.372;2023-02-14T03:29:39;96324.16;;;3.24;100.00
8075;BME280;4080;42.676;23.372;2023-02-14T03:32:12;96330.84;;;3.33;100.00
8075;BME280;4080;42.676;23.372;2023-02-14T03:34:47;96322.56;;;3.23;100.00
8075;BME280;4080;42.676;23.372;2023-02-14T03:37:20;96334.63;;;3.31;100.00
8075;BME280;4080;42.676;23.372;2023-02-14T03:39:56;96335.19;;;3.26;100.00
8075;BME280;4080;42.676;23.372;2023-02-14T03:42:27;96335.16;;;3.20;100.00
8075;BME280;4080;42.676;23.372;2023-02-14T03:44:56;96337.56;;;3.21;100.00
8075;BME280;4080;42.676;23.372;2023-02-14T03:47:27;96336.97;;;3.19;100.00
8075;BME280;4080;42.676;23.372;2023-02-14T03:49:59;96328.34;;;3.19;100.00
8075;BME280;4080;42.676;23.372;2023-02-14T03:52:28;96320.31;;;3.20;100.00
8075;BME280;4080;42.676;23.372;2023-02-14T03:54:59;96328.53;;;3.17;100.00
8075;BME280;4080;42.676;23.372;2023-02-14T03:57:31;96301.78;;;3.08;100.00
8075;BME280;4080;42.676;23.372;2023-02-14T04:00:01;96260.31;;;2.86;100.00
8075;BME280;4080;42.676;23.372;2023-02-14T04:02:32;96307.84;;;3.16;100.00
8075;BME280;4080;42.676;23.372;2023-02-14T04:05:04;96297.81;;;3.13;100.00
8075;BME280;4080;42.676;23.372;2023-02-14T04:07:43;96302.22;;;3.12;100.00
8075;BME280;4080;42.676;23.372;2023-02-14T04:10:11;96302.59;;;3.09;100.00
8075;BME280;4080;42.676;23.372;2023-02-14T04:12:38;96302.94;;;3.06;100.00
8075;BME280;4080;42.676;23.372;2023-02-14T04:15:05;96302.78;;;3.07;100.00
8075;BME280;4080;42.676;23.372;2023-02-14T04:17:32;96285.22;;;2.95;100.00
8075;BME280;4080;42.676;23.372;2023-02-14T04:20:16;96307.91;;;3.01;100.00
8075;BME280;4080;42.676;23.372;2023-02-14T04:22:43;96311.34;;;3.01;100.00
8075;BME280;4080;42.676;23.372;2023-02-14T04:25:12;96300.88;;;2.95;100.00
8075;BME280;4080;42.676;23.372;2023-02-14T04:27:38;96308.53;;;3.03;100.00
8075;BME280;4080;42.676;23.372;2023-02-14T04:30:06;96303.72;;;3.00;100.00
8075;BME280;4080;42.676;23.372;2023-02-14T04:32:33;96305.31;;;3.01;100.00
8075;BME280;4080;42.676;23.372;2023-02-14T04:35:00;96292.06;;;2.96;100.00
8075;BME280;4080;42.676;23.372;2023-02-14T04:37:26;96303.31;;;3.03;100.00
8075;BME280;4080;42.676;23.372;2023-02-14T04:39:53;96293.66;;;2.97;100.00
8075;BME280;4080;42.676;23.372;2023-02-14T04:42:21;96301.09;;;3.00;100.00
8075;BME280;4080;42.676;23.372;2023-02-14T04:44:48;96291.28;;;3.02;100.00
8075;BME280;4080;42.676;23.372;2023-02-14T04:47:15;96292.09;;;3.02;100.00
8075;BME280;4080;42.676;23.372;2023-02-14T04:49:42;96287.50;;;3.04;100.00
8075;BME280;4080;42.676;23.372;2023-02-14T04:52:08;96287.50;;;3.04;100.00
8075;BME280;4080;42.676;23.372;2023-02-14T04:54:37;96228.66;;;2.67;100.00
8075;BME280;4080;42.676;23.372;2023-02-14T04:57:04;96281.84;;;3.01;100.00
8075;BME280;4080;42.676;23.372;2023-02-14T04:59:32;96276.03;;;2.99;100.00
8075;BME280;4080;42.676;23.372;2023-02-14T05:01:59;96284.84;;;2.98;100.00
8075;BME280;4080;42.676;23.372;2023-02-14T05:04:25;96288.44;;;2.97;100.00
8075;BME280;4080;42.676;23.372;2023-02-14T05:06:52;96283.22;;;2.97;100.00
8075;BME280;4080;42.676;23.372;2023-02-14T05:09:19;96290.25;;;2.96;100.00
8075;BME280;4080;42.676;23.372;2023-02-14T05:11:45;96281.19;;;2.92;100.00
8075;BME280;4080;42.676;23.372;2023-02-14T05:14:12;96271.19;;;2.96;100.00
8075;BME280;4080;42.676;23.372;2023-02-14T05:16:40;96280.00;;;2.95;100.00
8075;BME280;4080;42.676;23.372;2023-02-14T05:19:07;96280.81;;;2.95;100.00
8075;BME280;4080;42.676;23.372;2023-02-14T05:21:34;96279.63;;;2.98;100.00
8075;BME280;4080;42.676;23.372;2023-02-14T05:24:00;96289.88;;;2.99;100.00
8075;BME280;4080;42.676;23.372;2023-02-14T05:26:27;96268.16;;;2.92;100.00
8075;BME280;4080;42.676;23.372;2023-02-14T05:28:54;96280.47;;;3.05;100.00
8075;BME280;4080;42.676;23.372;2023-02-14T05:31:21;96235.72;;;2.73;100.00
8075;BME280;4080;42.676;23.372;2023-02-14T05:33:49;96283.09;;;3.05;100.00
8075;BME280;4080;42.676;23.372;2023-02-14T05:36:16;96247.84;;;2.81;100.00
8075;BME280;4080;42.676;23.372;2023-02-14T05:38:43;96280.47;;;3.05;100.00
8075;BME280;4080;42.676;23.372;2023-02-14T05:41:09;96274.91;;;3.08;100.00
8075;BME280;4080;42.676;23.372;2023-02-14T05:43:36;96272.16;;;3.16;100.00
8075;BME280;4080;42.676;23.372;2023-02-14T05:46:03;96270.59;;;3.22;100.00
8075;BME280;4080;42.676;23.372;2023-02-14T05:48:30;96269.81;;;3.28;100.00
8075;BME280;4080;42.676;23.372;2023-02-14T05:51:02;96278.88;;;3.32;100.00
8075;BME280;4080;42.676;23.372;2023-02-14T05:53:29;96267.03;;;3.29;100.00
8075;BME280;4080;42.676;23.372;2023-02-14T05:55:56;96278.53;;;3.41;100.00
8075;BME280;4080;42.676;23.372;2023-02-14T05:58:22;96270.78;;;3.55;100.00
8075;BME280;4080;42.676;23.372;2023-02-14T06:00:49;96274.22;;;4.03;100.00
8075;BME280;4080;42.676;23.372;2023-02-14T06:03:16;96241.56;;;4.33;100.00
8075;BME280;4080;42.676;23.372;2023-02-14T06:05:43;96284.47;;;4.98;100.00
8075;BME280;4080;42.676;23.372;2023-02-14T06:08:11;96275.59;;;5.26;100.00
8075;BME280;4080;42.676;23.372;2023-02-14T06:10:37;96281.19;;;5.56;98.18
8075;BME280;4080;42.676;23.372;2023-02-14T06:13:04;96289.19;;;5.74;98.03
8075;BME280;4080;42.676;23.372;2023-02-14T06:15:33;96298.00;;;6.00;97.70
8075;BME280;4080;42.676;23.372;2023-02-14T06:18:00;96298.50;;;6.28;95.48
8075;BME280;4080;42.676;23.372;2023-02-14T06:20:27;96293.97;;;6.48;95.19
8075;BME280;4080;42.676;23.372;2023-02-14T06:22:53;96301.31;;;6.65;91.01
8075;BME280;4080;42.676;23.372;2023-02-14T06:25:22;96286.78;;;6.69;89.97
8075;BME280;4080;42.676;23.372;2023-02-14T06:27:49;96291.53;;;6.85;88.74
8075;BME280;4080;42.676;23.372;2023-02-14T06:30:17;96259.00;;;6.61;88.20
8075;BME280;4080;42.676;23.372;2023-02-14T06:32:43;96300.84;;;6.81;88.17
8075;BME280;4080;42.676;23.372;2023-02-14T06:35:10;96300.91;;;6.68;87.85
8075;BME280;4080;42.676;23.372;2023-02-14T06:37:38;96302.59;;;6.56;88.75
8075;BME280;4080;42.676;23.372;2023-02-14T06:40:07;96295.22;;;6.39;89.72
8075;BME280;4080;42.676;23.372;2023-02-14T06:42:36;96305.13;;;6.31;90.37
8075;BME280;4080;42.676;23.372;2023-02-14T06:45:03;96300.97;;;6.16;90.71
8075;BME280;4080;42.676;23.372;2023-02-14T06:47:30;96303.25;;;6.00;92.02
8075;BME280;4080;42.676;23.372;2023-02-14T06:49:56;96277.50;;;5.77;92.51
8075;BME280;4080;42.676;23.372;2023-02-14T06:52:24;96290.19;;;5.73;93.34
8075;BME280;4080;42.676;23.372;2023-02-14T06:54:51;96292.03;;;5.66;94.47
8075;BME280;4080;42.676;23.372;2023-02-14T06:57:17;96285.78;;;5.67;95.07
8075;BME280;4080;42.676;23.372;2023-02-14T06:59:45;96284.78;;;5.61;95.54
8075;BME280;4080;42.676;23.372;2023-02-14T07:02:12;96285.81;;;5.60;96.39
8075;BME280;4080;42.676;23.372;2023-02-14T07:04:39;96291.44;;;5.64;96.33
8075;BME280;4080;42.676;23.372;2023-02-14T07:07:05;96280.38;;;5.62;96.56
8075;BME280;4080;42.676;23.372;2023-02-14T07:09:32;96267.31;;;5.55;97.01
8075;BME280;4080;42.676;23.372;2023-02-14T07:11:59;96263.88;;;5.55;97.22
8075;BME280;4080;42.676;23.372;2023-02-14T07:14:26;96266.09;;;5.45;98.35
8075;BME280;4080;42.676;23.372;2023-02-14T07:16:54;96278.78;;;5.41;98.44
8075;BME280;4080;42.676;23.372;2023-02-14T07:19:20;96265.72;;;5.28;99.14
8075;BME280;4080;42.676;23.372;2023-02-14T07:21:47;96274.78;;;5.32;99.79
8075;BME280;4080;42.676;23.372;2023-02-14T07:24:14;96281.22;;;5.29;99.94
8075;BME280;4080;42.676;23.372;2023-02-14T07:26:40;96286.06;;;5.26;100.00
8075;BME280;4080;42.676;23.372;2023-02-14T07:29:07;96269.16;;;5.22;100.00
8075;BME280;4080;42.676;23.372;2023-02-14T07:31:34;96286.03;;;5.19;100.00
8075;BME280;4080;42.676;23.372;2023-02-14T07:34:02;96279.63;;;5.09;100.00
8075;BME280;4080;42.676;23.372;2023-02-14T07:36:28;96284.47;;;5.05;100.00
8075;BME280;4080;42.676;23.372;2023-02-14T07:38:55;96278.81;;;5.08;100.00
8075;BME280;4080;42.676;23.372;2023-02-14T07:41:22;96282.44;;;5.07;100.00
8075;BME280;4080;42.676;23.372;2023-02-14T07:43:49;96273.19;;;5.05;100.00
8075;BME280;4080;42.676;23.372;2023-02-14T07:46:16;96278.63;;;4.96;100.00
8075;BME280;4080;42.676;23.372;2023-02-14T07:48:42;96236.19;;;4.61;100.00
8075;BME280;4080;42.676;23.372;2023-02-14T07:51:11;96270.56;;;4.85;100.00
8075;BME280;4080;42.676;23.372;2023-02-14T07:53:37;96295.31;;;5.02;100.00
8075;BME280;4080;42.676;23.372;2023-02-14T07:56:04;96302.34;;;5.08;100.00
8075;BME280;4080;42.676;23.372;2023-02-14T07:58:31;96300.56;;;5.02;100.00
8075;BME280;4080;42.676;23.372;2023-02-14T08:00:58;96306.59;;;4.96;100.00
8075;BME280;4080;42.676;23.372;2023-02-14T08:03:25;96311.03;;;4.95;100.00
8075;BME280;4080;42.676;23.372;2023-02-14T08:05:51;96262.31;;;4.61;100.00
8075;BME280;4080;42.676;23.372;2023-02-14T08:08:24;96314.00;;;4.86;100.00
8075;BME280;4080;42.676;23.372;2023-02-14T08:10:51;96319.03;;;4.81;100.00
8075;BME280;4080;42.676;23.372;2023-02-14T08:13:18;96314.81;;;4.80;100.00
8075;BME280;4080;42.676;23.372;2023-02-14T08:15:45;96310.59;;;4.79;100.00
8075;BME280;4080;42.676;23.372;2023-02-14T08:18:31;96311.38;;;4.73;100.00
8075;BME280;4080;42.676;23.372;2023-02-14T08:20:58;96314.59;;;4.81;100.00
8075;BME280;4080;42.676;23.372;2023-02-14T08:23:26;96289.03;;;4.57;100.00
8075;BME280;4080;42.676;23.372;2023-02-14T08:25:53;96326.66;;;4.76;100.00
8075;BME280;4080;42.676;23.372;2023-02-14T08:28:19;96310.19;;;4.68;100.00
8075;BME280;4080;42.676;23.372;2023-02-14T08:30:46;96326.28;;;4.79;100.00
8075;BME280;4080;42.676;23.372;2023-02-14T08:33:13;96308.56;;;4.81;100.00
8075;BME280;4080;42.676;23.372;2023-02-14T08:35:40;96308.16;;;4.84;100.00
8075;BME280;4080;42.676;23.372;2023-02-14T08:38:06;96306.56;;;4.83;100.00
8075;BME280;4080;42.676;23.372;2023-02-14T08:40:35;96296.72;;;4.78;100.00
8075;BME280;4080;42.676;23.372;2023-02-14T08:43:02;96306.38;;;4.84;100.00
8075;BME280;4080;42.676;23.372;2023-02-14T08:45:29;96310.19;;;4.82;100.00
8075;BME280;4080;42.676;23.372;2023-02-14T08:47:59;96311.19;;;4.81;100.00
8075;BME280;4080;42.676;23.372;2023-02-14T08:50:26;96323.66;;;4.85;100.00
8075;BME280;4080;42.676;23.372;2023-02-14T08:52:53;96327.06;;;4.86;100.00
8075;BME280;4080;42.676;23.372;2023-02-14T08:55:20;96306.97;;;4.73;100.00
8075;BME280;4080;42.676;23.372;2023-02-14T08:57:48;96320.63;;;4.68;100.00
8075;BME280;4080;42.676;23.372;2023-02-14T09:00:15;96320.81;;;4.60;100.00
8075;BME280;4080;42.676;23.372;2023-02-14T09:02:42;96314.97;;;4.58;100.00
8075;BME280;4080;42.676;23.372;2023-02-14T09:05:09;96189.19;;;3.67;100.00
8075;BME280;4080;42.676;23.372;2023-02-14T09:07:35;96315.34;;;4.55;100.00
8075;BME280;4080;42.676;23.372;2023-02-14T09:10:02;96314.97;;;4.58;100.00
8075;BME280;4080;42.676;23.372;2023-02-14T09:12:29;96307.31;;;4.57;100.00
8075;BME280;4080;42.676;23.372;2023-02-14T09:15:00;96313.00;;;4.74;100.00
8075;BME280;4080;42.676;23.372;2023-02-14T09:17:27;96284.84;;;4.62;100.00
8075;BME280;4080;42.676;23.372;2023-02-14T09:19:55;96302.53;;;4.74;100.00
8075;BME280;4080;42.676;23.372;2023-02-14T09:22:22;96302.94;;;4.71;100.00
8075;BME280;4080;42.676;23.372;2023-02-14T09:24:48;96295.31;;;4.76;100.00
8075;BME280;4080;42.676;23.372;2023-02-14T09:27:15;96300.94;;;4.79;100.00
8075;BME280;4080;42.676;23.372;2023-02-14T09:29:42;96303.16;;;4.82;100.00
8075;BME280;4080;42.676;23.372;2023-02-14T09:32:10;96301.34;;;4.83;100.00
8075;BME280;4080;42.676;23.372;2023-02-14T09:34:36;96305.34;;;4.79;100.00
8075;BME280;4080;42.676;23.372;2023-02-14T09:37:03;96305.34;;;4.79;100.00
8075;BME280;4080;42.676;23.372;2023-02-14T09:39:47;96312.00;;;4.88;100.00
8075;BME280;4080;42.676;23.372;2023-02-14T09:42:44;96297.91;;;4.82;100.00
8075;BME280;4080;42.676;23.372;2023-02-14T09:45:16;96285.66;;;4.70;100.00
8075;BME280;4080;42.676;23.372;2023-02-14T09:47:50;96298.31;;;4.79;100.00
8075;BME280;4080;42.676;23.372;2023-02-14T09:50:21;96287.06;;;4.79;100.00
8075;BME280;4080;42.676;23.372;2023-02-14T09:52:51;96286.44;;;4.77;100.00
8075;BME280;4080;42.676;23.372;2023-02-14T09:55:22;96285.44;;;4.71;100.00
8075;BME280;4080;42.676;23.372;2023-02-14T09:58:01;96278.41;;;4.65;100.00
8075;BME280;4080;42.676;23.372;2023-02-14T10:00:34;96282.63;;;4.73;100.00
8075;BME280;4080;42.676;23.372;2023-02-14T10:03:11;96282.03;;;4.71;100.00
8075;BME280;4080;42.676;23.372;2023-02-14T10:05:47;96282.63;;;4.73;100.00
8075;BME280;4080;42.676;23.372;2023-02-14T10:08:26;96283.22;;;4.75;100.00
8075;BME280;4080;42.676;23.372;2023-02-14T10:11:02;96265.34;;;4.65;100.00
8075;BME280;4080;42.676;23.372;2023-02-14T10:13:36;96287.25;;;4.71;100.00
8075;BME280;4080;42.676;23.372;2023-02-14T10:16:10;96277.59;;;4.71;100.00
8075;BME280;4080;42.676;23.372;2023-02-14T10:18:44;96270.78;;;4.70;100.00
8075;BME280;4080;42.676;23.372;2023-02-14T10:21:19;96275.59;;;4.73;100.00
8075;BME280;4080;42.676;23.372;2023-02-14T10:23:49;96267.16;;;4.64;100.00
8075;BME280;4080;42.676;23.372;2023-02-14T10:26:23;96273.19;;;4.72;100.00
8075;BME280;4080;42.676;23.372;2023-02-14T10:28:51;96265.34;;;4.72;100.00
8075;BME280;4080;42.676;23.372;2023-02-14T10:31:20;96271.38;;;4.72;100.00
8075;BME280;4080;42.676;23.372;2023-02-14T10:33:53;96240.41;;;4.69;100.00
8075;BME280;4080;42.676;23.372;2023-02-14T10:36:31;96262.13;;;4.76;100.00
8075;BME280;4080;42.676;23.372;2023-02-14T10:39:11;96260.31;;;4.70;100.00
8075;BME280;4080;42.676;23.372;2023-02-14T10:41:46;96267.34;;;4.70;100.00
8075;BME280;4080;42.676;23.372;2023-02-14T10:44:29;96273.19;;;4.72;100.00
8075;BME280;4080;42.676;23.372;2023-02-14T10:47:03;96265.75;;;4.68;100.00
8075;BME280;4080;42.676;23.372;2023-02-14T10:49:40;96251.84;;;4.55;100.00
8075;BME280;4080;42.676;23.372;2023-02-14T10:52:15;96216.22;;;4.27;100.00
8075;BME280;4080;42.676;23.372;2023-02-14T10:54:45;96255.88;;;4.64;100.00
8075;BME280;4080;42.676;23.372;2023-02-14T10:57:19;96256.28;;;4.67;100.00
8075;BME280;4080;42.676;23.372;2023-02-14T10:59:51;96242.63;;;4.65;100.00
8075;BME280;4080;42.676;23.372;2023-02-14T11:02:23;96258.50;;;4.64;100.00
8075;BME280;4080;42.676;23.372;2023-02-14T11:04:52;96252.47;;;4.63;100.00
8075;BME280;4080;42.676;23.372;2023-02-14T11:07:20;96236.97;;;4.55;100.00
8075;BME280;4080;42.676;23.372;2023-02-14T11:09:47;96254.28;;;4.63;100.00
8075;BME280;4080;42.676;23.372;2023-02-14T11:12:32;96254.28;;;4.70;100.00
8075;BME280;4080;42.676;23.372;2023-02-14T11:15:18;96208.81;;;4.44;100.00
8075;BME280;4080;42.676;23.372;2023-02-14T11:17:47;96224.50;;;4.51;100.00
8075;BME280;4080;42.676;23.372;2023-02-14T11:20:24;96242.63;;;4.65;100.00
8075;BME280;4080;42.676;23.372;2023-02-14T11:22:52;96180.84;;;4.25;100.00
8075;BME280;4080;42.676;23.372;2023-02-14T11:25:20;96228.13;;;4.56;100.00
8075;BME280;4080;42.676;23.372;2023-02-14T11:27:51;96249.25;;;4.61;100.00
8075;BME280;4080;42.676;23.372;2023-02-14T11:30:24;96239.38;;;4.57;100.00
8075;BME280;4080;42.676;23.372;2023-02-14T11:32:52;96224.94;;;4.61;100.00
8075;BME280;4080;42.676;23.372;2023-02-14T11:35:23;96224.53;;;4.64;100.00
8075;BME280;4080;42.676;23.372;2023-02-14T11:37:58;96225.31;;;4.58;100.00
8075;BME280;4080;42.676;23.372;2023-02-14T11:40:28;96216.06;;;4.55;100.00
8075;BME280;4080;42.676;23.372;2023-02-14T11:42:57;96227.53;;;4.67;100.00
8075;BME280;4080;42.676;23.372;2023-02-14T11:45:31;96228.75;;;4.72;100.00
8075;BME280;4080;42.676;23.372;2023-02-14T11:48:14;96222.50;;;4.79;100.00
8075;BME280;4080;42.676;23.372;2023-02-14T11:50:53;96197.16;;;4.80;100.00
8075;BME280;4080;42.676;23.372;2023-02-14T11:53:23;96206.03;;;4.92;100.00
8075;BME280;4080;42.676;23.372;2023-02-14T11:55:52;96171.03;;;4.93;100.00
8075;BME280;4080;42.676;23.372;2023-02-14T11:58:28;96210.19;;;5.19;100.00
8075;BME280;4080;42.676;23.372;2023-02-14T12:00:56;96201.16;;;5.22;100.00
8075;BME280;4080;42.676;23.372;2023-02-14T12:03:25;96189.47;;;5.24;100.00
8075;BME280;4080;42.676;23.372;2023-02-14T12:05:54;96188.88;;;5.22;100.00
8075;BME280;4080;42.676;23.372;2023-02-14T12:08:28;96188.28;;;5.20;100.00
8075;BME280;4080;42.676;23.372;2023-02-14T12:11:04;96186.66;;;5.26;100.00
8075;BME280;4080;42.676;23.372;2023-02-14T12:13:31;96177.41;;;5.23;100.00
8075;BME280;4080;42.676;23.372;2023-02-14T12:15:58;96180.22;;;5.22;100.00
8075;BME280;4080;42.676;23.372;2023-02-14T12:18:39;96184.22;;;5.31;100.00
8075;BME280;4080;42.676;23.372;2023-02-14T12:21:20;96188.22;;;5.40;100.00
8075;BME280;4080;42.676;23.372;2023-02-14T12:23:55;96148.22;;;5.26;100.00
8075;BME280;4080;42.676;23.372;2023-02-14T12:26:29;96175.69;;;5.49;100.00
8075;BME280;4080;42.676;23.372;2023-02-14T12:29:03;96165.16;;;5.69;100.00
8075;BME280;4080;42.676;23.372;2023-02-14T12:31:31;96175.38;;;5.90;100.00
8075;BME280;4080;42.676;23.372;2023-02-14T12:33:57;96169.88;;;5.98;99.48
8075;BME280;4080;42.676;23.372;2023-02-14T12:36:36;96132.28;;;5.79;98.89
8075;BME280;4080;42.676;23.372;2023-02-14T12:39:11;96179.28;;;6.12;98.44
8075;BME280;4080;42.676;23.372;2023-02-14T12:41:48;96173.84;;;6.14;98.12
8075;BME280;4080;42.676;23.372;2023-02-14T12:44:24;96172.41;;;6.18;98.45
8075;BME280;4080;42.676;23.372;2023-02-14T12:47:13;96155.06;;;6.17;97.93
8075;BME280;4080;42.676;23.372;2023-02-14T12:50:08;96169.47;;;6.33;97.23
8075;BME280;4080;42.676;23.372;2023-02-14T12:53:02;96172.06;;;6.33;97.17
8075;BME280;4080;42.676;23.372;2023-02-14T12:55:44;96178.97;;;6.27;96.98
8075;BME280;4080;42.676;23.372;2023-02-14T12:58:22;96167.69;;;6.27;97.57
8075;BME280;4080;42.676;23.372;2023-02-14T13:00:58;96162.06;;;6.23;98.03
8075;BME280;4080;42.676;23.372;2023-02-14T13:03:44;96173.31;;;6.30;98.09
8075;BME280;4080;42.676;23.372;2023-02-14T13:06:17;96157.97;;;6.34;97.96
8075;BME280;4080;42.676;23.372;2023-02-14T13:09:04;96163.84;;;6.29;97.63
8075;BME280;4080;42.676;23.372;2023-02-14T13:11:38;96164.09;;;6.21;97.72
8075;BME280;4080;42.676;23.372;2023-02-14T13:14:20;96163.50;;;6.19;98.57
8075;BME280;4080;42.676;23.372;2023-02-14T13:16:54;96159.13;;;6.13;98.56
8075;BME280;4080;42.676;23.372;2023-02-14T13:19:31;96142.88;;;5.98;99.37
8075;BME280;4080;42.676;23.372;2023-02-14T13:22:02;96160.38;;;6.04;100.00
8075;BME280;4080;42.676;23.372;2023-02-14T13:24:36;96113.56;;;5.76;100.00
8075;BME280;4080;42.676;23.372;2023-02-14T13:27:06;96155.13;;;6.04;100.00
8075;BME280;4080;42.676;23.372;2023-02-14T13:29:41;96148.66;;;6.06;100.00
8075;BME280;4080;42.676;23.372;2023-02-14T13:32:12;96162.19;;;6.03;100.00
8075;BME280;4080;42.676;23.372;2023-02-14T13:34:42;96156.41;;;5.95;100.00
8075;BME280;4080;42.676;23.372;2023-02-14T13:37:11;96152.41;;;5.85;100.00